sensor_id;sensor_type;location;lat;lon;timestamp;temperature;humidity
70456;DHT22;57916;51.996;5.180;2023-07-24T00:00:32;22.30;75.80
70456;DHT22;57916;51.996;5.180;2023-07-24T00:03:01;22.20;74.80
70456;DHT22;57916;51.996;5.180;2023-07-24T00:05:29;22.20;74.60
70456;DHT22;57916;51.996;5.180;2023-07-24T00:07:56;22.20;74.30
70456;DHT22;57916;51.996;5.180;2023-07-24T00:10:23;22.20;74.20
70456;DHT22;57916;51.996;5.180;2023-07-24T00:12:50;22.10;74.20
70456;DHT22;57916;51.996;5.180;2023-07-24T00:15:17;22.10;74.30
70456;DHT22;57916;51.996;5.180;2023-07-24T00:17:44;22.10;74.30
70456;DHT22;57916;51.996;5.180;2023-07-24T00:20:11;22.10;74.30
70456;DHT22;57916;51.996;5.180;2023-07-24T00:22:39;22.10;74.30
70456;DHT22;57916;51.996;5.180;2023-07-24T00:25:06;22.10;74.40
70456;DHT22;57916;51.996;5.180;2023-07-24T00:27:33;22.10;74.40
70456;DHT22;57916;51.996;5.180;2023-07-24T00:30:00;22.10;74.30
70456;DHT22;57916;51.996;5.180;2023-07-24T00:32:27;22.20;74.30
70456;DHT22;57916;51.996;5.180;2023-07-24T00:34:55;22.10;74.20
70456;DHT22;57916;51.996;5.180;2023-07-24T00:37:24;22.20;74.00
70456;DHT22;57916;51.996;5.180;2023-07-24T00:39:51;22.10;74.90
70456;DHT22;57916;51.996;5.180;2023-07-24T00:42:18;22.20;74.20
70456;DHT22;57916;51.996;5.180;2023-07-24T00:44:47;22.20;74.30
70456;DHT22;57916;51.996;5.180;2023-07-24T00:47:17;22.20;74.40
70456;DHT22;57916;51.996;5.180;2023-07-24T00:49:46;22.20;74.30
70456;DHT22;57916;51.996;5.180;2023-07-24T00:52:14;22.30;74.40
70456;DHT22;57916;51.996;5.180;2023-07-24T00:54:41;22.20;74.10
70456;DHT22;57916;51.996;5.180;2023-07-24T00:57:11;22.30;74.20
70456;DHT22;57916;51.996;5.180;2023-07-24T00:59:40;22.20;74.30
70456;DHT22;57916;51.996;5.180;2023-07-24T01:02:08;22.30;74.40
70456;DHT22;57916;51.996;5.180;2023-07-24T01:04:38;22.30;74.50
70456;DHT22;57916;51.996;5.180;2023-07-24T01:07:08;22.30;74.60
70456;DHT22;57916;51.996;5.180;2023-07-24T01:09:35;22.30;74.70
70456;DHT22;57916;51.996;5.180;2023-07-24T01:12:07;22.30;74.90
70456;DHT22;57916;51.996;5.180;2023-07-24T01:14:44;22.30;75.30
70456;DHT22;57916;51.996;5.180;2023-07-24T01:17:15;22.30;75.50
70456;DHT22;57916;51.996;5.180;2023-07-24T01:19:47;22.20;75.60
70456;DHT22;57916;51.996;5.180;2023-07-24T01:25:10;22.30;75.80
70456;DHT22;57916;51.996;5.180;2023-07-24T01:27:45;22.30;75.90
70456;DHT22;57916;51.996;5.180;2023-07-24T01:30:16;22.20;75.90
70456;DHT22;57916;51.996;5.180;2023-07-24T01:32:44;22.20;76.10
70456;DHT22;57916;51.996;5.180;2023-07-24T01:35:11;22.20;76.20
70456;DHT22;57916;51.996;5.180;2023-07-24T01:37:40;22.20;76.20
70456;DHT22;57916;51.996;5.180;2023-07-24T01:40:09;22.10;75.90
70456;DHT22;57916;51.996;5.180;2023-07-24T01:42:37;22.10;76.10
70456;DHT22;57916;51.996;5.180;2023-07-24T01:45:05;22.10;76.10
70456;DHT22;57916;51.996;5.180;2023-07-24T01:47:32;22.00;76.00
70456;DHT22;57916;51.996;5.180;2023-07-24T01:49:59;22.00;76.00
70456;DHT22;57916;51.996;5.180;2023-07-24T01:52:26;22.00;75.90
70456;DHT22;57916;51.996;5.180;2023-07-24T01:54:53;22.00;75.80
70456;DHT22;57916;51.996;5.180;2023-07-24T01:57:20;22.00;75.80
70456;DHT22;57916;51.996;5.180;2023-07-24T01:59:47;22.10;75.90
70456;DHT22;57916;51.996;5.180;2023-07-24T02:02:16;22.00;75.80
70456;DHT22;57916;51.996;5.180;2023-07-24T02:04:43;22.10;75.90
70456;DHT22;57916;51.996;5.180;2023-07-24T02:07:10;22.10;76.00
70456;DHT22;57916;51.996;5.180;2023-07-24T02:09:37;22.10;76.00
70456;DHT22;57916;51.996;5.180;2023-07-24T02:12:04;22.10;76.00
70456;DHT22;57916;51.996;5.180;2023-07-24T02:14:31;22.10;75.90
70456;DHT22;57916;51.996;5.180;2023-07-24T02:16:58;22.20;75.90
70456;DHT22;57916;51.996;5.180;2023-07-24T02:19:25;22.20;75.90
70456;DHT22;57916;51.996;5.180;2023-07-24T02:21:52;22.20;75.90
70456;DHT22;57916;51.996;5.180;2023-07-24T02:24:19;22.20;75.80
70456;DHT22;57916;51.996;5.180;2023-07-24T02:26:46;22.20;75.80
70456;DHT22;57916;51.996;5.180;2023-07-24T02:29:13;22.10;75.80
70456;DHT22;57916;51.996;5.180;2023-07-24T02:31:40;22.10;75.90
70456;DHT22;57916;51.996;5.180;2023-07-24T02:34:07;22.10;75.90
70456;DHT22;57916;51.996;5.180;2023-07-24T02:36:34;22.10;75.80
70456;DHT22;57916;51.996;5.180;2023-07-24T02:39:01;22.00;75.80
70456;DHT22;57916;51.996;5.180;2023-07-24T02:41:28;22.00;76.10
70456;DHT22;57916;51.996;5.180;2023-07-24T02:43:56;21.90;76.20
70456;DHT22;57916;51.996;5.180;2023-07-24T02:46:23;21.90;76.50
70456;DHT22;57916;51.996;5.180;2023-07-24T02:48:52;21.80;76.60
70456;DHT22;57916;51.996;5.180;2023-07-24T02:51:19;21.80;76.70
70456;DHT22;57916;51.996;5.180;2023-07-24T02:53:46;21.80;76.70
70456;DHT22;57916;51.996;5.180;2023-07-24T02:56:13;21.80;76.60
70456;DHT22;57916;51.996;5.180;2023-07-24T02:58:40;21.80;76.40
70456;DHT22;57916;51.996;5.180;2023-07-24T03:01:07;21.80;76.20
70456;DHT22;57916;51.996;5.180;2023-07-24T03:03:35;21.90;76.00
70456;DHT22;57916;51.996;5.180;2023-07-24T03:06:02;21.90;75.90
70456;DHT22;57916;51.996;5.180;2023-07-24T03:08:30;21.80;75.90
70456;DHT22;57916;51.996;5.180;2023-07-24T03:10:57;21.90;75.80
70456;DHT22;57916;51.996;5.180;2023-07-24T03:13:26;21.90;75.70
70456;DHT22;57916;51.996;5.180;2023-07-24T03:15:58;21.90;75.30
70456;DHT22;57916;51.996;5.180;2023-07-24T03:18:25;21.90;75.20
70456;DHT22;57916;51.996;5.180;2023-07-24T03:20:52;21.90;75.00
70456;DHT22;57916;51.996;5.180;2023-07-24T03:23:19;21.90;75.20
70456;DHT22;57916;51.996;5.180;2023-07-24T03:25:47;21.80;75.20
70456;DHT22;57916;51.996;5.180;2023-07-24T03:28:14;21.80;75.30
70456;DHT22;57916;51.996;5.180;2023-07-24T03:30:41;21.80;75.30
70456;DHT22;57916;51.996;5.180;2023-07-24T03:33:08;21.80;75.60
70456;DHT22;57916;51.996;5.180;2023-07-24T03:35:35;21.70;75.80
70456;DHT22;57916;51.996;5.180;2023-07-24T03:38:02;21.70;76.10
70456;DHT22;57916;51.996;5.180;2023-07-24T03:40:30;21.70;76.10
70456;DHT22;57916;51.996;5.180;2023-07-24T03:42:57;21.60;76.20
70456;DHT22;57916;51.996;5.180;2023-07-24T03:45:24;21.60;76.40
70456;DHT22;57916;51.996;5.180;2023-07-24T03:47:51;21.60;76.60
70456;DHT22;57916;51.996;5.180;2023-07-24T03:50:18;21.50;76.70
70456;DHT22;57916;51.996;5.180;2023-07-24T03:52:45;21.50;76.50
70456;DHT22;57916;51.996;5.180;2023-07-24T03:55:12;21.40;76.30
70456;DHT22;57916;51.996;5.180;2023-07-24T03:57:39;21.40;76.20
70456;DHT22;57916;51.996;5.180;2023-07-24T04:00:06;21.40;76.20
70456;DHT22;57916;51.996;5.180;2023-07-24T04:02:39;21.30;75.90
70456;DHT22;57916;51.996;5.180;2023-07-24T04:05:07;21.30;75.90
70456;DHT22;57916;51.996;5.180;2023-07-24T04:07:33;21.30;76.10
70456;DHT22;57916;51.996;5.180;2023-07-24T04:10:00;21.30;76.20
70456;DHT22;57916;51.996;5.180;2023-07-24T04:12:29;21.30;75.90
70456;DHT22;57916;51.996;5.180;2023-07-24T04:14:56;21.30;75.90
70456;DHT22;57916;51.996;5.180;2023-07-24T04:17:23;21.30;76.00
70456;DHT22;57916;51.996;5.180;2023-07-24T04:19:50;21.30;75.90
70456;DHT22;57916;51.996;5.180;2023-07-24T04:22:17;21.30;75.80
70456;DHT22;57916;51.996;5.180;2023-07-24T04:24:44;21.30;75.70
70456;DHT22;57916;51.996;5.180;2023-07-24T04:27:11;21.30;75.80
70456;DHT22;57916;51.996;5.180;2023-07-24T04:29:38;21.30;75.80
70456;DHT22;57916;51.996;5.180;2023-07-24T04:32:05;21.30;75.70
70456;DHT22;57916;51.996;5.180;2023-07-24T04:34:32;21.30;75.60
70456;DHT22;57916;51.996;5.180;2023-07-24T04:36:59;21.30;75.60
70456;DHT22;57916;51.996;5.180;2023-07-24T04:39:26;21.20;75.70
70456;DHT22;57916;51.996;5.180;2023-07-24T04:41:53;21.20;75.60
70456;DHT22;57916;51.996;5.180;2023-07-24T04:44:20;21.30;75.60
70456;DHT22;57916;51.996;5.180;2023-07-24T04:46:47;21.30;75.50
70456;DHT22;57916;51.996;5.180;2023-07-24T04:49:14;21.20;75.40
70456;DHT22;57916;51.996;5.180;2023-07-24T04:51:41;21.20;76.20
70456;DHT22;57916;51.996;5.180;2023-07-24T04:54:08;21.20;75.30
70456;DHT22;57916;51.996;5.180;2023-07-24T04:56:35;21.20;75.30
70456;DHT22;57916;51.996;5.180;2023-07-24T04:59:03;21.20;75.30
70456;DHT22;57916;51.996;5.180;2023-07-24T05:01:30;21.10;75.30
70456;DHT22;57916;51.996;5.180;2023-07-24T05:03:57;21.10;75.30
70456;DHT22;57916;51.996;5.180;2023-07-24T05:06:24;21.10;75.40
70456;DHT22;57916;51.996;5.180;2023-07-24T05:08:52;21.10;75.50
70456;DHT22;57916;51.996;5.180;2023-07-24T05:11:20;21.10;75.60
70456;DHT22;57916;51.996;5.180;2023-07-24T05:13:46;21.10;75.50
70456;DHT22;57916;51.996;5.180;2023-07-24T05:16:13;21.10;75.50
70456;DHT22;57916;51.996;5.180;2023-07-24T05:18:40;21.20;75.40
70456;DHT22;57916;51.996;5.180;2023-07-24T05:21:07;21.20;75.10
70456;DHT22;57916;51.996;5.180;2023-07-24T05:23:34;21.20;75.10
70456;DHT22;57916;51.996;5.180;2023-07-24T05:26:02;21.30;75.10
70456;DHT22;57916;51.996;5.180;2023-07-24T05:28:31;21.30;74.80
70456;DHT22;57916;51.996;5.180;2023-07-24T05:31:02;21.30;74.70
70456;DHT22;57916;51.996;5.180;2023-07-24T05:33:30;21.30;74.70
70456;DHT22;57916;51.996;5.180;2023-07-24T05:35:59;21.30;74.70
70456;DHT22;57916;51.996;5.180;2023-07-24T05:38:26;21.20;74.70
70456;DHT22;57916;51.996;5.180;2023-07-24T05:40:57;21.30;74.90
70456;DHT22;57916;51.996;5.180;2023-07-24T05:43:25;21.30;74.80
70456;DHT22;57916;51.996;5.180;2023-07-24T05:45:52;21.30;74.90
70456;DHT22;57916;51.996;5.180;2023-07-24T05:48:19;21.40;74.80
70456;DHT22;57916;51.996;5.180;2023-07-24T05:50:46;21.40;74.60
70456;DHT22;57916;51.996;5.180;2023-07-24T05:53:15;21.40;74.40
70456;DHT22;57916;51.996;5.180;2023-07-24T05:55:42;21.40;74.50
70456;DHT22;57916;51.996;5.180;2023-07-24T05:58:09;21.40;74.50
70456;DHT22;57916;51.996;5.180;2023-07-24T06:00:36;21.50;74.30
70456;DHT22;57916;51.996;5.180;2023-07-24T06:03:03;21.40;74.40
70456;DHT22;57916;51.996;5.180;2023-07-24T06:05:34;21.50;74.40
70456;DHT22;57916;51.996;5.180;2023-07-24T06:08:01;21.60;74.60
70456;DHT22;57916;51.996;5.180;2023-07-24T06:10:28;21.70;74.20
70456;DHT22;57916;51.996;5.180;2023-07-24T06:12:55;21.70;73.50
70456;DHT22;57916;51.996;5.180;2023-07-24T06:15:22;21.70;73.30
70456;DHT22;57916;51.996;5.180;2023-07-24T06:17:49;21.70;73.30
70456;DHT22;57916;51.996;5.180;2023-07-24T06:20:20;21.70;74.20
70456;DHT22;57916;51.996;5.180;2023-07-24T06:22:47;21.80;73.20
70456;DHT22;57916;51.996;5.180;2023-07-24T06:25:14;21.80;73.20
70456;DHT22;57916;51.996;5.180;2023-07-24T06:27:41;21.80;73.00
70456;DHT22;57916;51.996;5.180;2023-07-24T06:30:08;21.80;73.00
70456;DHT22;57916;51.996;5.180;2023-07-24T06:32:42;21.90;73.10
70456;DHT22;57916;51.996;5.180;2023-07-24T06:35:09;22.00;72.50
70456;DHT22;57916;51.996;5.180;2023-07-24T06:37:36;22.00;72.10
70456;DHT22;57916;51.996;5.180;2023-07-24T06:40:03;22.10;72.90
70456;DHT22;57916;51.996;5.180;2023-07-24T06:42:31;22.10;71.30
70456;DHT22;57916;51.996;5.180;2023-07-24T06:44:58;22.10;71.20
70456;DHT22;57916;51.996;5.180;2023-07-24T06:47:25;22.10;70.90
70456;DHT22;57916;51.996;5.180;2023-07-24T06:49:52;22.20;71.10
70456;DHT22;57916;51.996;5.180;2023-07-24T06:52:19;22.20;71.20
70456;DHT22;57916;51.996;5.180;2023-07-24T06:54:46;22.40;71.30
70456;DHT22;57916;51.996;5.180;2023-07-24T06:57:13;22.50;71.00
70456;DHT22;57916;51.996;5.180;2023-07-24T06:59:40;22.60;70.70
70456;DHT22;57916;51.996;5.180;2023-07-24T07:02:08;22.70;70.80
70456;DHT22;57916;51.996;5.180;2023-07-24T07:04:35;22.80;70.70
70456;DHT22;57916;51.996;5.180;2023-07-24T07:07:02;23.00;70.80
70456;DHT22;57916;51.996;5.180;2023-07-24T07:09:29;23.10;69.10
70456;DHT22;57916;51.996;5.180;2023-07-24T07:11:56;23.20;67.80
70456;DHT22;57916;51.996;5.180;2023-07-24T07:14:23;23.10;67.70
70456;DHT22;57916;51.996;5.180;2023-07-24T07:16:50;23.10;67.50
70456;DHT22;57916;51.996;5.180;2023-07-24T07:19:17;23.10;67.60
70456;DHT22;57916;51.996;5.180;2023-07-24T07:21:44;23.10;67.00
70456;DHT22;57916;51.996;5.180;2023-07-24T07:24:11;23.10;66.70
70456;DHT22;57916;51.996;5.180;2023-07-24T07:26:39;23.00;66.60
70456;DHT22;57916;51.996;5.180;2023-07-24T07:29:06;22.90;66.40
70456;DHT22;57916;51.996;5.180;2023-07-24T07:31:33;22.80;66.60
70456;DHT22;57916;51.996;5.180;2023-07-24T07:34:00;22.70;67.30
70456;DHT22;57916;51.996;5.180;2023-07-24T07:36:27;22.60;67.80
70456;DHT22;57916;51.996;5.180;2023-07-24T07:38:55;22.60;68.20
70456;DHT22;57916;51.996;5.180;2023-07-24T07:41:22;22.50;68.20
70456;DHT22;57916;51.996;5.180;2023-07-24T07:43:49;22.50;68.50
70456;DHT22;57916;51.996;5.180;2023-07-24T07:46:16;22.40;68.90
70456;DHT22;57916;51.996;5.180;2023-07-24T07:48:43;22.50;69.10
70456;DHT22;57916;51.996;5.180;2023-07-24T07:51:10;22.40;68.70
70456;DHT22;57916;51.996;5.180;2023-07-24T07:53:37;22.40;68.10
70456;DHT22;57916;51.996;5.180;2023-07-24T07:56:05;22.40;67.90
70456;DHT22;57916;51.996;5.180;2023-07-24T07:58:32;22.40;68.00
70456;DHT22;57916;51.996;5.180;2023-07-24T08:01:06;22.40;68.40
70456;DHT22;57916;51.996;5.180;2023-07-24T08:03:33;22.50;68.80
70456;DHT22;57916;51.996;5.180;2023-07-24T08:06:01;22.60;69.30
70456;DHT22;57916;51.996;5.180;2023-07-24T08:08:28;22.60;67.90
70456;DHT22;57916;51.996;5.180;2023-07-24T08:10:55;22.60;67.70
70456;DHT22;57916;51.996;5.180;2023-07-24T08:13:22;22.70;67.50
70456;DHT22;57916;51.996;5.180;2023-07-24T08:15:49;22.90;67.10
70456;DHT22;57916;51.996;5.180;2023-07-24T08:18:17;22.90;67.70
70456;DHT22;57916;51.996;5.180;2023-07-24T08:20:44;23.00;67.30
70456;DHT22;57916;51.996;5.180;2023-07-24T08:23:11;23.00;68.00
70456;DHT22;57916;51.996;5.180;2023-07-24T08:25:38;23.10;68.80
70456;DHT22;57916;51.996;5.180;2023-07-24T08:28:05;23.10;69.00
70456;DHT22;57916;51.996;5.180;2023-07-24T08:30:34;23.10;68.10
70456;DHT22;57916;51.996;5.180;2023-07-24T08:33:01;23.20;67.40
70456;DHT22;57916;51.996;5.180;2023-07-24T08:35:29;23.10;67.10
70456;DHT22;57916;51.996;5.180;2023-07-24T08:37:56;23.10;67.50
70456;DHT22;57916;51.996;5.180;2023-07-24T08:40:23;23.10;67.40
70456;DHT22;57916;51.996;5.180;2023-07-24T08:42:50;23.10;68.00
70456;DHT22;57916;51.996;5.180;2023-07-24T08:45:18;23.10;68.40
70456;DHT22;57916;51.996;5.180;2023-07-24T08:47:45;23.20;67.90
70456;DHT22;57916;51.996;5.180;2023-07-24T08:50:12;23.40;67.60
70456;DHT22;57916;51.996;5.180;2023-07-24T08:52:42;23.50;66.40
70456;DHT22;57916;51.996;5.180;2023-07-24T08:55:10;23.50;66.90
70456;DHT22;57916;51.996;5.180;2023-07-24T08:57:38;23.50;65.80
70456;DHT22;57916;51.996;5.180;2023-07-24T09:00:05;23.40;65.70
70456;DHT22;57916;51.996;5.180;2023-07-24T09:02:33;23.40;66.30
70456;DHT22;57916;51.996;5.180;2023-07-24T09:05:02;23.30;66.40
70456;DHT22;57916;51.996;5.180;2023-07-24T09:07:30;23.30;66.10
70456;DHT22;57916;51.996;5.180;2023-07-24T09:09:58;23.20;65.80
70456;DHT22;57916;51.996;5.180;2023-07-24T09:12:25;23.10;65.90
70456;DHT22;57916;51.996;5.180;2023-07-24T09:15:03;23.10;65.80
70456;DHT22;57916;51.996;5.180;2023-07-24T09:17:33;23.10;65.40
70456;DHT22;57916;51.996;5.180;2023-07-24T09:20:00;23.10;65.80
70456;DHT22;57916;51.996;5.180;2023-07-24T09:22:29;23.20;65.10
70456;DHT22;57916;51.996;5.180;2023-07-24T09:24:57;23.20;65.30
70456;DHT22;57916;51.996;5.180;2023-07-24T09:27:27;23.20;65.00
70456;DHT22;57916;51.996;5.180;2023-07-24T09:29:57;23.20;65.00
70456;DHT22;57916;51.996;5.180;2023-07-24T09:32:26;23.20;65.20
70456;DHT22;57916;51.996;5.180;2023-07-24T09:34:54;23.20;65.20
70456;DHT22;57916;51.996;5.180;2023-07-24T09:37:32;23.20;64.50
70456;DHT22;57916;51.996;5.180;2023-07-24T09:40:03;23.30;64.70
70456;DHT22;57916;51.996;5.180;2023-07-24T09:42:34;23.30;64.40
70456;DHT22;57916;51.996;5.180;2023-07-24T09:45:18;23.40;65.00
70456;DHT22;57916;51.996;5.180;2023-07-24T09:47:49;23.40;64.20
70456;DHT22;57916;51.996;5.180;2023-07-24T09:50:25;23.50;63.50
70456;DHT22;57916;51.996;5.180;2023-07-24T09:52:53;23.60;64.10
70456;DHT22;57916;51.996;5.180;2023-07-24T09:55:25;23.70;64.30
70456;DHT22;57916;51.996;5.180;2023-07-24T09:57:56;23.70;64.30
70456;DHT22;57916;51.996;5.180;2023-07-24T10:00:25;23.80;63.30
70456;DHT22;57916;51.996;5.180;2023-07-24T10:02:54;23.80;62.90
70456;DHT22;57916;51.996;5.180;2023-07-24T10:05:21;23.90;63.10
70456;DHT22;57916;51.996;5.180;2023-07-24T10:07:50;24.10;61.70
70456;DHT22;57916;51.996;5.180;2023-07-24T10:10:18;24.10;61.00
70456;DHT22;57916;51.996;5.180;2023-07-24T10:12:45;24.20;61.70
70456;DHT22;57916;51.996;5.180;2023-07-24T10:15:13;24.20;61.00
70456;DHT22;57916;51.996;5.180;2023-07-24T10:17:41;24.20;61.00
70456;DHT22;57916;51.996;5.180;2023-07-24T10:20:10;24.10;60.90
70456;DHT22;57916;51.996;5.180;2023-07-24T10:22:41;24.10;61.90
70456;DHT22;57916;51.996;5.180;2023-07-24T10:25:10;24.30;61.60
70456;DHT22;57916;51.996;5.180;2023-07-24T10:27:47;24.60;60.80
70456;DHT22;57916;51.996;5.180;2023-07-24T10:30:16;24.90;60.50
70456;DHT22;57916;51.996;5.180;2023-07-24T10:35:49;25.50;59.40
70456;DHT22;57916;51.996;5.180;2023-07-24T10:38:18;25.80;57.70
70456;DHT22;57916;51.996;5.180;2023-07-24T10:40:46;25.90;56.90
70456;DHT22;57916;51.996;5.180;2023-07-24T10:43:19;26.00;56.70
70456;DHT22;57916;51.996;5.180;2023-07-24T10:45:54;26.00;56.70
70456;DHT22;57916;51.996;5.180;2023-07-24T10:48:25;25.90;55.80
70456;DHT22;57916;51.996;5.180;2023-07-24T10:50:52;25.80;55.80
70456;DHT22;57916;51.996;5.180;2023-07-24T10:53:22;25.60;56.30
70456;DHT22;57916;51.996;5.180;2023-07-24T10:55:50;25.50;57.20
70456;DHT22;57916;51.996;5.180;2023-07-24T10:58:18;25.40;58.20
70456;DHT22;57916;51.996;5.180;2023-07-24T11:00:45;25.30;58.60
70456;DHT22;57916;51.996;5.180;2023-07-24T11:03:14;25.20;58.80
70456;DHT22;57916;51.996;5.180;2023-07-24T11:05:46;25.10;59.30
70456;DHT22;57916;51.996;5.180;2023-07-24T11:08:14;25.00;60.20
70456;DHT22;57916;51.996;5.180;2023-07-24T11:10:53;24.90;61.00
70456;DHT22;57916;51.996;5.180;2023-07-24T11:13:22;24.80;61.70
70456;DHT22;57916;51.996;5.180;2023-07-24T11:15:50;24.90;62.00
70456;DHT22;57916;51.996;5.180;2023-07-24T11:18:19;25.10;61.50
70456;DHT22;57916;51.996;5.180;2023-07-24T11:20:56;25.20;61.40
70456;DHT22;57916;51.996;5.180;2023-07-24T11:23:24;25.20;60.90
70456;DHT22;57916;51.996;5.180;2023-07-24T11:25:52;25.30;59.40
70456;DHT22;57916;51.996;5.180;2023-07-24T11:28:20;25.30;59.30
70456;DHT22;57916;51.996;5.180;2023-07-24T11:30:49;25.30;58.40
70456;DHT22;57916;51.996;5.180;2023-07-24T11:33:16;25.20;58.10
70456;DHT22;57916;51.996;5.180;2023-07-24T11:35:45;25.20;58.10
70456;DHT22;57916;51.996;5.180;2023-07-24T11:38:13;25.10;58.00
70456;DHT22;57916;51.996;5.180;2023-07-24T11:40:42;24.90;58.00
70456;DHT22;57916;51.996;5.180;2023-07-24T11:43:22;24.80;58.50
70456;DHT22;57916;51.996;5.180;2023-07-24T11:45:52;24.70;58.70
70456;DHT22;57916;51.996;5.180;2023-07-24T11:48:21;24.60;58.80
70456;DHT22;57916;51.996;5.180;2023-07-24T11:50:49;24.50;58.50
70456;DHT22;57916;51.996;5.180;2023-07-24T11:53:30;24.40;58.80
70456;DHT22;57916;51.996;5.180;2023-07-24T11:55:59;24.30;59.40
70456;DHT22;57916;51.996;5.180;2023-07-24T11:58:27;24.30;60.50
70456;DHT22;57916;51.996;5.180;2023-07-24T12:00:56;24.20;62.20
70456;DHT22;57916;51.996;5.180;2023-07-24T12:03:28;24.20;62.50
70456;DHT22;57916;51.996;5.180;2023-07-24T12:05:55;24.10;63.00
70456;DHT22;57916;51.996;5.180;2023-07-24T12:08:34;24.10;63.00
70456;DHT22;57916;51.996;5.180;2023-07-24T12:11:02;24.10;62.50
70456;DHT22;57916;51.996;5.180;2023-07-24T12:13:29;24.20;62.60
70456;DHT22;57916;51.996;5.180;2023-07-24T12:15:58;24.30;62.20
70456;DHT22;57916;51.996;5.180;2023-07-24T12:18:25;24.30;61.10
70456;DHT22;57916;51.996;5.180;2023-07-24T12:20:53;24.40;61.40
70456;DHT22;57916;51.996;5.180;2023-07-24T12:23:20;24.50;61.70
70456;DHT22;57916;51.996;5.180;2023-07-24T12:25:47;24.60;61.00
70456;DHT22;57916;51.996;5.180;2023-07-24T12:28:15;24.70;60.50
70456;DHT22;57916;51.996;5.180;2023-07-24T12:30:42;24.80;60.30
70456;DHT22;57916;51.996;5.180;2023-07-24T12:33:10;24.70;60.20
70456;DHT22;57916;51.996;5.180;2023-07-24T12:35:37;24.70;60.90
70456;DHT22;57916;51.996;5.180;2023-07-24T12:38:04;24.70;61.20
70456;DHT22;57916;51.996;5.180;2023-07-24T12:40:31;24.70;62.10
70456;DHT22;57916;51.996;5.180;2023-07-24T12:42:58;24.70;60.90
70456;DHT22;57916;51.996;5.180;2023-07-24T12:45:25;24.60;61.00
70456;DHT22;57916;51.996;5.180;2023-07-24T12:47:52;24.60;61.30
70456;DHT22;57916;51.996;5.180;2023-07-24T12:50:19;24.70;62.00
70456;DHT22;57916;51.996;5.180;2023-07-24T12:52:46;24.80;62.10
70456;DHT22;57916;51.996;5.180;2023-07-24T12:55:14;25.00;62.00
70456;DHT22;57916;51.996;5.180;2023-07-24T12:57:41;25.20;60.40
70456;DHT22;57916;51.996;5.180;2023-07-24T13:00:08;25.20;60.30
70456;DHT22;57916;51.996;5.180;2023-07-24T13:02:36;25.20;58.70
70456;DHT22;57916;51.996;5.180;2023-07-24T13:05:03;25.20;58.60
70456;DHT22;57916;51.996;5.180;2023-07-24T13:07:30;25.10;58.60
70456;DHT22;57916;51.996;5.180;2023-07-24T13:09:58;25.00;60.10
70456;DHT22;57916;51.996;5.180;2023-07-24T13:12:25;25.00;60.90
70456;DHT22;57916;51.996;5.180;2023-07-24T13:14:52;24.90;61.90
70456;DHT22;57916;51.996;5.180;2023-07-24T13:17:19;24.80;63.40
70456;DHT22;57916;51.996;5.180;2023-07-24T13:19:46;24.80;64.00
70456;DHT22;57916;51.996;5.180;2023-07-24T13:22:13;24.60;64.10
70456;DHT22;57916;51.996;5.180;2023-07-24T13:24:40;24.60;64.40
70456;DHT22;57916;51.996;5.180;2023-07-24T13:27:07;24.50;64.70
70456;DHT22;57916;51.996;5.180;2023-07-24T13:29:34;24.40;64.60
70456;DHT22;57916;51.996;5.180;2023-07-24T13:32:01;24.30;64.60
70456;DHT22;57916;51.996;5.180;2023-07-24T13:34:28;24.20;65.50
70456;DHT22;57916;51.996;5.180;2023-07-24T13:36:55;24.10;66.30
70456;DHT22;57916;51.996;5.180;2023-07-24T13:39:22;24.10;67.20
70456;DHT22;57916;51.996;5.180;2023-07-24T13:41:49;24.10;69.20
70456;DHT22;57916;51.996;5.180;2023-07-24T13:44:16;24.20;68.50
70456;DHT22;57916;51.996;5.180;2023-07-24T13:46:43;24.20;66.20
70456;DHT22;57916;51.996;5.180;2023-07-24T13:49:10;24.10;65.50
70456;DHT22;57916;51.996;5.180;2023-07-24T13:51:37;24.10;65.80
70456;DHT22;57916;51.996;5.180;2023-07-24T13:54:04;24.00;65.50
70456;DHT22;57916;51.996;5.180;2023-07-24T13:56:31;23.90;65.70
70456;DHT22;57916;51.996;5.180;2023-07-24T13:59:02;23.80;66.50
70456;DHT22;57916;51.996;5.180;2023-07-24T14:01:29;23.70;67.10
70456;DHT22;57916;51.996;5.180;2023-07-24T14:03:57;23.70;68.70
70456;DHT22;57916;51.996;5.180;2023-07-24T14:06:25;23.60;67.90
70456;DHT22;57916;51.996;5.180;2023-07-24T14:08:52;23.50;68.30
70456;DHT22;57916;51.996;5.180;2023-07-24T14:11:18;23.40;69.40
70456;DHT22;57916;51.996;5.180;2023-07-24T14:13:46;23.30;69.80
70456;DHT22;57916;51.996;5.180;2023-07-24T14:16:13;23.30;70.40
70456;DHT22;57916;51.996;5.180;2023-07-24T14:18:40;23.30;71.00
70456;DHT22;57916;51.996;5.180;2023-07-24T14:21:08;23.30;71.40
70456;DHT22;57916;51.996;5.180;2023-07-24T14:23:35;23.30;70.80
70456;DHT22;57916;51.996;5.180;2023-07-24T14:26:02;23.30;71.00
70456;DHT22;57916;51.996;5.180;2023-07-24T14:28:29;23.30;70.20
70456;DHT22;57916;51.996;5.180;2023-07-24T14:30:56;23.20;69.80
70456;DHT22;57916;51.996;5.180;2023-07-24T14:33:23;23.30;71.10
70456;DHT22;57916;51.996;5.180;2023-07-24T14:35:50;23.30;70.40
70456;DHT22;57916;51.996;5.180;2023-07-24T14:38:17;23.40;70.80
70456;DHT22;57916;51.996;5.180;2023-07-24T14:40:44;23.40;70.50
70456;DHT22;57916;51.996;5.180;2023-07-24T14:43:11;23.50;70.40
70456;DHT22;57916;51.996;5.180;2023-07-24T14:45:39;23.50;70.10
70456;DHT22;57916;51.996;5.180;2023-07-24T14:48:06;23.60;69.40
70456;DHT22;57916;51.996;5.180;2023-07-24T14:50:36;23.60;67.90
70456;DHT22;57916;51.996;5.180;2023-07-24T14:53:03;23.50;67.20
70456;DHT22;57916;51.996;5.180;2023-07-24T14:55:30;23.50;67.10
70456;DHT22;57916;51.996;5.180;2023-07-24T14:57:57;23.50;68.60
70456;DHT22;57916;51.996;5.180;2023-07-24T15:00:24;23.60;69.30
70456;DHT22;57916;51.996;5.180;2023-07-24T15:02:51;23.70;68.40
70456;DHT22;57916;51.996;5.180;2023-07-24T15:05:18;23.80;67.90
70456;DHT22;57916;51.996;5.180;2023-07-24T15:07:45;23.90;67.40
70456;DHT22;57916;51.996;5.180;2023-07-24T15:10:14;23.90;67.20
70456;DHT22;57916;51.996;5.180;2023-07-24T15:12:41;24.00;65.40
70456;DHT22;57916;51.996;5.180;2023-07-24T15:15:09;24.00;65.40
70456;DHT22;57916;51.996;5.180;2023-07-24T15:17:36;24.00;65.50
70456;DHT22;57916;51.996;5.180;2023-07-24T15:20:03;24.00;64.00
70456;DHT22;57916;51.996;5.180;2023-07-24T15:22:30;23.90;63.90
70456;DHT22;57916;51.996;5.180;2023-07-24T15:24:57;23.90;64.90
70456;DHT22;57916;51.996;5.180;2023-07-24T15:27:25;24.00;66.60
70456;DHT22;57916;51.996;5.180;2023-07-24T15:29:52;24.00;65.90
70456;DHT22;57916;51.996;5.180;2023-07-24T15:32:19;24.10;65.50
70456;DHT22;57916;51.996;5.180;2023-07-24T15:34:46;24.10;63.60
70456;DHT22;57916;51.996;5.180;2023-07-24T15:37:13;24.00;63.90
70456;DHT22;57916;51.996;5.180;2023-07-24T15:39:40;24.00;63.80